createdAt,value
2018-12-30T00:00:43.242Z,100944.86
2018-12-30T00:03:07.641Z,100938.20
2018-12-30T00:05:32.204Z,100943.45
2018-12-30T00:07:56.888Z,100942.27
2018-12-30T00:10:21.295Z,100950.00
2018-12-30T00:12:52.845Z,100958.52
2018-12-30T00:15:24.545Z,100961.18
2018-12-30T00:17:48.931Z,100944.48
2018-12-30T00:20:13.341Z,100956.66
2018-12-30T00:22:37.705Z,100945.48
2018-12-30T00:25:07.532Z,100956.48
2018-12-30T00:27:32.006Z,100970.02
2018-12-30T00:29:56.384Z,100962.18
2018-12-30T00:32:31.449Z,100969.22
2018-12-30T00:34:55.819Z,100959.45
2018-12-30T00:37:20.232Z,100959.83
2018-12-30T00:39:44.616Z,100944.75
2018-12-30T00:42:09.025Z,100947.55
2018-12-30T00:44:33.396Z,100948.00
2018-12-30T00:46:57.790Z,100951.17
2018-12-30T00:49:29.421Z,100960.18
2018-12-30T00:51:53.818Z,100960.14
2018-12-30T00:54:18.212Z,100966.49
2018-12-30T00:56:42.591Z,100975.20
2018-12-30T00:59:06.983Z,100977.33
2018-12-30T01:01:31.347Z,100976.45
2018-12-30T01:04:08.368Z,100976.91
2018-12-30T01:06:32.759Z,100968.42
2018-12-30T01:08:57.154Z,100984.37
2018-12-30T01:11:21.534Z,100986.37
2018-12-30T01:13:45.932Z,100996.33
2018-12-30T01:16:10.321Z,100994.45
2018-12-30T01:18:34.706Z,101010.18
2018-12-30T01:20:59.098Z,101012.39
2018-12-30T01:23:23.497Z,101012.73
2018-12-30T01:25:54.896Z,101010.52
2018-12-30T01:28:19.285Z,101016.42
2018-12-30T01:30:49.664Z,101016.67
2018-12-30T01:33:14.036Z,101017.47
2018-12-30T01:35:38.441Z,101017.39
2018-12-30T01:38:02.818Z,101014.98
2018-12-30T01:40:27.225Z,101023.56
2018-12-30T01:42:58.796Z,101041.23
2018-12-30T01:45:23.201Z,101043.43
2018-12-30T01:47:47.592Z,101058.06
2018-12-30T01:50:12.072Z,101070.50
2018-12-30T01:52:36.456Z,101093.36
2018-12-30T01:55:00.857Z,101104.51
2018-12-30T01:57:25.247Z,101103.16
2018-12-30T01:59:56.927Z,101122.34
2018-12-30T02:02:21.360Z,101136.25
2018-12-30T02:04:45.727Z,101122.19
2018-12-30T02:07:10.109Z,101124.92
2018-12-30T02:09:34.512Z,101123.38
2018-12-30T02:11:58.921Z,101143.06
2018-12-30T02:14:23.291Z,101158.27
2018-12-30T02:16:54.603Z,101152.94
2018-12-30T02:19:30.789Z,101162.91
2018-12-30T02:21:55.204Z,101182.02
2018-12-30T02:24:19.589Z,101184.14
2018-12-30T02:26:43.970Z,101190.89
2018-12-30T02:29:08.382Z,101197.41
2018-12-30T02:31:32.772Z,101205.47
2018-12-30T02:33:57.161Z,101187.96
2018-12-30T02:36:21.532Z,101201.56
2018-12-30T02:38:45.951Z,101211.80
2018-12-30T02:41:10.342Z,101205.47
2018-12-30T02:43:34.771Z,101221.88
2018-12-30T02:45:59.142Z,101216.72
2018-12-30T02:48:23.591Z,101215.28
2018-12-30T02:50:47.985Z,101232.47
2018-12-30T02:53:12.371Z,101245.51
2018-12-30T02:55:36.776Z,101242.34
2018-12-30T02:58:01.157Z,101254.22
2018-12-30T03:00:25.552Z,101245.67
2018-12-30T03:02:49.924Z,101255.77
2018-12-30T03:05:14.616Z,101249.64
2018-12-30T03:07:39.004Z,101259.14
2018-12-30T03:10:03.662Z,101265.47
2018-12-30T03:12:28.068Z,101262.65
2018-12-30T03:14:52.439Z,101283.17
2018-12-30T03:17:16.855Z,101280.05
2018-12-30T03:19:41.240Z,101284.55
2018-12-30T03:22:05.808Z,101289.11
2018-12-30T03:24:30.200Z,101295.32
2018-12-30T03:26:54.613Z,101308.42
2018-12-30T03:29:18.989Z,101299.32
2018-12-30T03:31:43.411Z,101297.01
2018-12-30T03:34:07.789Z,101302.34
2018-12-30T03:36:32.173Z,101320.17
2018-12-30T03:38:56.587Z,101326.52
2018-12-30T03:41:20.959Z,101313.48
2018-12-30T03:43:45.451Z,101337.20
2018-12-30T03:46:09.827Z,101350.69
2018-12-30T03:48:34.230Z,101333.46
2018-12-30T03:50:58.611Z,101349.50
2018-12-30T03:53:23.005Z,101343.50
2018-12-30T03:55:47.382Z,101349.82
2018-12-30T03:58:11.771Z,101345.69
2018-12-30T04:00:36.172Z,101363.44
2018-12-30T04:03:00.550Z,101360.03
2018-12-30T04:05:24.955Z,101369.18
2018-12-30T04:07:49.342Z,101374.14
2018-12-30T04:10:13.738Z,101378.39
2018-12-30T04:12:38.118Z,101389.85
2018-12-30T04:15:02.528Z,101393.20
2018-12-30T04:20:23.524Z,101402.11
2018-12-30T04:22:48.016Z,101404.34
2018-12-30T04:25:12.504Z,101410.11
2018-12-30T04:27:36.977Z,101427.89
2018-12-30T04:30:01.496Z,101432.21
2018-12-30T04:32:25.918Z,101438.60
2018-12-30T04:34:50.305Z,101441.59
2018-12-30T04:37:14.696Z,101442.43
2018-12-30T04:39:39.072Z,101455.52
2018-12-30T04:42:03.468Z,101450.17
2018-12-30T04:44:27.859Z,101476.38
2018-12-30T04:46:52.245Z,101488.00
2018-12-30T04:49:16.626Z,101479.25
2018-12-30T04:51:46.820Z,101487.34
2018-12-30T04:54:11.216Z,101495.84
2018-12-30T04:59:11.707Z,101500.70
2018-12-30T05:01:36.115Z,101513.48
2018-12-30T05:04:00.511Z,101513.16
2018-12-30T05:06:24.888Z,101524.68
2018-12-30T05:08:49.285Z,101524.46
2018-12-30T05:11:13.740Z,101526.78
2018-12-30T05:13:38.142Z,101541.20
2018-12-30T05:16:02.514Z,101539.63
2018-12-30T05:18:26.925Z,101544.17
2018-12-30T05:20:51.311Z,101554.12
2018-12-30T05:23:15.684Z,101552.84
2018-12-30T05:25:40.095Z,101560.84
2018-12-30T05:28:04.470Z,101568.70
2018-12-30T05:30:28.884Z,101571.09
2018-12-30T05:32:53.281Z,101575.91
2018-12-30T05:35:17.709Z,101582.06
2018-12-30T05:37:42.081Z,101588.33
2018-12-30T05:40:12.159Z,101591.22
2018-12-30T05:42:36.549Z,101598.14
2018-12-30T05:45:00.968Z,101612.00
2018-12-30T05:47:25.354Z,101601.11
2018-12-30T05:49:49.747Z,101614.36
2018-12-30T05:52:14.149Z,101618.70
2018-12-30T05:54:38.539Z,101626.50
2018-12-30T05:57:02.924Z,101628.09
2018-12-30T05:59:27.310Z,101626.97
2018-12-30T06:01:51.718Z,101640.04
2018-12-30T06:04:16.106Z,101638.33
2018-12-30T06:06:40.496Z,101644.67
2018-12-30T06:12:01.734Z,101649.72
2018-12-30T06:14:26.150Z,101658.12
2018-12-30T06:16:50.557Z,101653.20
2018-12-30T06:19:14.947Z,101657.92
2018-12-30T06:21:39.399Z,101659.27
2018-12-30T06:24:03.764Z,101658.09
2018-12-30T06:26:28.155Z,101675.55
2018-12-30T06:28:52.637Z,101675.59
2018-12-30T06:31:17.029Z,101680.41
2018-12-30T06:33:41.426Z,101678.55
2018-12-30T06:36:05.806Z,101679.12
2018-12-30T06:38:35.634Z,101695.62
2018-12-30T06:41:00.006Z,101699.33
2018-12-30T06:43:24.433Z,101703.31
2018-12-30T06:45:48.820Z,101705.41
2018-12-30T06:48:18.963Z,101711.99
2018-12-30T06:50:43.379Z,101710.16
2018-12-30T06:53:07.763Z,101708.33
2018-12-30T06:55:32.162Z,101705.05
2018-12-30T06:57:56.553Z,101701.71
2018-12-30T07:00:20.950Z,101721.39
2018-12-30T07:02:45.332Z,101717.87
2018-12-30T07:05:09.820Z,101720.13
2018-12-30T07:07:34.200Z,101729.28
2018-12-30T07:09:58.575Z,101731.30
2018-12-30T07:12:22.963Z,101744.39
2018-12-30T07:14:47.367Z,101733.73
2018-12-30T07:17:11.883Z,101739.73
2018-12-30T07:19:36.253Z,101740.49
2018-12-30T07:22:00.658Z,101751.55
2018-12-30T07:24:25.052Z,101760.02
2018-12-30T07:26:49.448Z,101764.19
2018-12-30T07:29:13.841Z,101763.05
2018-12-30T07:31:38.250Z,101773.16
2018-12-30T07:34:02.651Z,101779.31
2018-12-30T07:36:38.792Z,101771.81
2018-12-30T07:41:38.474Z,101786.27
2018-12-30T07:44:02.912Z,101791.00
2018-12-30T07:46:27.295Z,101791.16
2018-12-30T07:48:51.687Z,101793.16
2018-12-30T07:51:16.081Z,101790.67
2018-12-30T07:53:52.448Z,101799.95
2018-12-30T07:56:16.834Z,101796.42
2018-12-30T07:58:41.240Z,101808.22
2018-12-30T08:01:05.629Z,101798.88
2018-12-30T08:03:30.011Z,101800.33
2018-12-30T08:05:54.419Z,101810.96
2018-12-30T08:08:18.793Z,101807.06
2018-12-30T08:10:43.211Z,101820.41
2018-12-30T08:13:07.602Z,101823.53
2018-12-30T08:15:32.026Z,101817.90
2018-12-30T08:17:56.399Z,101819.00
2018-12-30T08:22:56.691Z,101823.87
2018-12-30T08:25:21.080Z,101821.86
2018-12-30T08:27:45.457Z,101825.36
2018-12-30T08:30:09.845Z,101818.59
2018-12-30T08:32:34.234Z,101771.41
2018-12-30T08:35:11.246Z,101834.67
2018-12-30T08:37:35.658Z,101832.22
2018-12-30T08:40:00.166Z,101835.63
2018-12-30T08:42:24.555Z,101834.35
2018-12-30T08:44:48.939Z,101851.70
2018-12-30T08:47:13.344Z,101860.88
2018-12-30T08:49:37.728Z,101859.39
2018-12-30T08:52:02.133Z,101837.52
2018-12-30T08:54:26.489Z,101856.23
2018-12-30T08:57:03.368Z,101854.95
2018-12-30T08:59:27.757Z,101727.72
2018-12-30T09:01:52.155Z,101866.19
2018-12-30T09:04:16.539Z,101862.88
2018-12-30T09:06:40.925Z,101864.44
2018-12-30T09:12:02.328Z,101867.16
2018-12-30T09:14:26.754Z,101864.35
2018-12-30T09:16:51.138Z,101871.36
2018-12-30T09:19:15.555Z,101869.40
2018-12-30T09:24:16.472Z,101869.53
2018-12-30T09:26:40.854Z,101877.17
2018-12-30T09:29:05.363Z,101880.41
2018-12-30T09:31:29.761Z,101880.28
2018-12-30T09:33:54.141Z,101870.68
2018-12-30T09:36:18.625Z,101868.00
2018-12-30T09:38:43.000Z,101871.18
2018-12-30T09:41:07.411Z,101878.22
2018-12-30T09:43:31.791Z,101882.05
2018-12-30T09:45:56.201Z,101874.47
2018-12-30T09:48:20.605Z,101885.03
2018-12-30T09:50:45.040Z,101884.69
2018-12-30T09:53:09.419Z,101882.89
2018-12-30T09:55:33.821Z,101887.23
2018-12-30T09:57:58.213Z,101881.84
2018-12-30T10:00:22.604Z,101883.37
2018-12-30T10:02:47.015Z,101881.44
2018-12-30T10:05:11.435Z,101892.72
2018-12-30T10:07:35.872Z,101890.00
2018-12-30T10:10:00.260Z,101901.75
2018-12-30T10:12:24.658Z,101892.05
2018-12-30T10:14:49.045Z,101887.63
2018-12-30T10:17:13.455Z,101894.70
2018-12-30T10:19:37.849Z,101899.13
2018-12-30T10:22:02.254Z,101895.55
2018-12-30T10:24:26.644Z,101900.14
2018-12-30T10:26:51.027Z,101903.59
2018-12-30T10:29:15.426Z,101909.45
2018-12-30T10:31:39.809Z,101904.05
2018-12-30T10:34:04.229Z,101908.37
2018-12-30T10:36:28.617Z,101912.61
2018-12-30T10:38:53.029Z,101909.49
2018-12-30T10:41:17.501Z,101910.07
2018-12-30T10:43:41.925Z,101908.93
2018-12-30T10:46:06.330Z,101909.91
2018-12-30T10:48:30.714Z,101908.05
2018-12-30T10:50:55.103Z,101910.80
2018-12-30T10:53:19.468Z,101905.47
2018-12-30T10:55:43.869Z,101899.28
2018-12-30T10:58:08.257Z,101903.66
2018-12-30T11:00:32.680Z,101896.08
2018-12-30T11:02:57.056Z,101895.84
2018-12-30T11:05:21.483Z,101892.89
2018-12-30T11:07:45.869Z,101900.14
2018-12-30T11:10:10.321Z,101893.21
2018-12-30T11:12:34.766Z,101884.49
2018-12-30T11:14:59.150Z,101900.34
2018-12-30T11:17:23.555Z,101876.36
2018-12-30T11:19:47.948Z,101883.56
2018-12-30T11:22:12.364Z,101889.29
2018-12-30T11:24:36.738Z,101888.38
2018-12-30T11:27:01.125Z,101888.24
2018-12-30T11:29:25.513Z,101870.31
2018-12-30T11:31:49.937Z,101877.11
2018-12-30T11:34:14.333Z,101871.67
2018-12-30T11:36:38.738Z,101876.89
2018-12-30T11:39:03.230Z,101884.20
2018-12-30T11:41:27.586Z,101878.75
2018-12-30T11:43:52.028Z,101871.58
2018-12-30T11:46:16.400Z,101880.94
2018-12-30T11:48:40.807Z,101875.83
2018-12-30T11:51:05.198Z,101876.92
2018-12-30T11:53:29.588Z,101876.34
2018-12-30T11:55:53.994Z,101877.36
2018-12-30T11:58:23.564Z,101878.34
2018-12-30T12:01:00.595Z,101882.34
2018-12-30T12:03:25.036Z,101881.48
2018-12-30T12:05:49.437Z,101882.92
2018-12-30T12:08:13.829Z,101884.39
2018-12-30T12:10:38.237Z,101885.60
2018-12-30T12:13:02.607Z,101894.48
2018-12-30T12:15:27.089Z,101890.36
2018-12-30T12:17:51.484Z,101898.39
2018-12-30T12:20:15.899Z,101897.43
2018-12-30T12:25:16.295Z,101896.05
2018-12-30T12:27:40.745Z,101910.20
2018-12-30T12:30:25.972Z,101903.98
2018-12-30T12:32:50.374Z,101905.84
2018-12-30T12:35:14.741Z,101905.68
2018-12-30T12:37:39.149Z,101902.20
2018-12-30T12:40:15.062Z,101901.39
2018-12-30T12:42:39.462Z,101908.96
2018-12-30T12:47:39.985Z,101917.00
2018-12-30T12:50:04.923Z,101912.66
2018-12-30T12:52:29.320Z,101910.94
2018-12-30T12:54:53.700Z,101924.47
2018-12-30T12:57:18.125Z,101915.47
2018-12-30T12:59:42.500Z,101925.50
2018-12-30T13:02:06.888Z,101922.66
2018-12-30T13:04:31.346Z,101924.09
2018-12-30T13:06:55.725Z,101935.98
2018-12-30T13:09:20.129Z,101931.70
2018-12-30T13:11:44.529Z,101943.66
2018-12-30T13:14:08.935Z,101948.55
2018-12-30T13:16:33.339Z,101946.29
2018-12-30T13:18:57.753Z,101942.94
2018-12-30T13:21:22.124Z,101939.43
2018-12-30T13:23:46.526Z,101933.63
2018-12-30T13:26:10.932Z,101941.56
2018-12-30T13:28:35.337Z,101945.53
2018-12-30T13:30:59.758Z,101948.22
2018-12-30T13:33:24.144Z,101939.30
2018-12-30T13:35:48.560Z,101947.90
2018-12-30T13:38:12.967Z,101945.67
2018-12-30T13:40:37.376Z,101942.95
2018-12-30T13:43:01.776Z,101947.00
2018-12-30T13:45:26.188Z,101944.21
2018-12-30T13:47:50.587Z,101934.89
2018-12-30T13:50:14.969Z,101941.87
2018-12-30T13:52:39.398Z,101940.88
2018-12-30T13:55:14.836Z,101942.42
2018-12-30T13:57:40.093Z,101946.33
2018-12-30T14:03:01.333Z,101943.67
2018-12-30T14:05:25.714Z,101950.41
2018-12-30T14:07:50.146Z,101941.39
2018-12-30T14:10:14.510Z,101929.07
2018-12-30T14:12:39.031Z,101936.17
2018-12-30T14:15:03.429Z,101948.22
2018-12-30T14:17:27.854Z,101950.09
2018-12-30T14:19:52.230Z,101953.84
2018-12-30T14:22:16.605Z,101951.91
2018-12-30T14:24:41.025Z,101968.75
2018-12-30T14:27:05.786Z,101956.22
2018-12-30T14:29:30.209Z,101966.00
2018-12-30T14:31:54.616Z,101963.27
2018-12-30T14:34:19.016Z,101962.97
2018-12-30T14:36:43.414Z,101948.58
2018-12-30T14:39:07.827Z,101938.13
2018-12-30T14:41:32.227Z,101929.73
2018-12-30T14:43:56.657Z,101912.83
2018-12-30T14:46:21.131Z,101928.63
2018-12-30T14:48:45.524Z,101947.28
2018-12-30T14:51:09.941Z,101951.78
2018-12-30T14:53:34.330Z,101955.11
2018-12-30T14:55:58.754Z,101966.28
2018-12-30T14:58:35.594Z,101960.25
2018-12-30T15:01:00.008Z,101954.23
2018-12-30T15:03:24.394Z,101967.98
2018-12-30T15:05:48.860Z,101975.08
2018-12-30T15:08:13.276Z,101970.03
2018-12-30T15:10:37.844Z,101969.13
2018-12-30T15:13:02.223Z,101984.23
2018-12-30T15:15:26.622Z,101975.70
2018-12-30T15:17:51.047Z,101982.45
2018-12-30T15:20:15.436Z,101986.70
2018-12-30T15:22:39.882Z,101993.80
2018-12-30T15:25:15.501Z,101996.09
2018-12-30T15:27:52.026Z,102009.74
2018-12-30T15:30:16.416Z,101995.13
2018-12-30T15:32:40.817Z,101995.02
2018-12-30T15:38:02.499Z,101999.91
2018-12-30T15:40:26.872Z,102001.22
2018-12-30T15:42:51.324Z,102005.42
2018-12-30T15:45:15.719Z,102009.48
2018-12-30T15:47:40.103Z,102004.50
2018-12-30T15:50:15.684Z,102002.17
2018-12-30T15:52:40.079Z,102005.42
2018-12-30T15:55:04.573Z,102019.22
2018-12-30T15:57:28.965Z,102015.98
2018-12-30T15:59:53.391Z,102023.13
2018-12-30T16:02:17.782Z,102023.42
2018-12-30T16:04:42.200Z,102024.14
2018-12-30T16:07:06.587Z,102018.50
2018-12-30T16:09:31.021Z,102017.30
2018-12-30T16:11:55.401Z,102015.92
2018-12-30T16:14:19.796Z,102022.20
2018-12-30T16:16:44.205Z,102028.01
2018-12-30T16:19:08.589Z,102033.54
2018-12-30T16:21:32.983Z,102033.97
2018-12-30T16:23:57.370Z,102030.41
2018-12-30T16:26:21.771Z,102028.12
2018-12-30T16:28:46.181Z,102029.97
2018-12-30T16:33:45.621Z,102038.56
2018-12-30T16:36:10.054Z,102036.44
2018-12-30T16:38:34.417Z,102033.77
2018-12-30T16:43:35.275Z,102048.47
2018-12-30T16:45:59.678Z,102055.50
2018-12-30T16:48:24.084Z,102066.44
2018-12-30T16:50:48.490Z,102075.42
2018-12-30T16:53:12.896Z,102064.72
2018-12-30T16:55:37.304Z,102071.13
2018-12-30T16:58:01.731Z,102077.67
2018-12-30T17:00:26.118Z,102070.48
2018-12-30T17:02:50.538Z,102074.01
2018-12-30T17:05:15.151Z,102085.75
2018-12-30T17:07:39.532Z,102082.86
2018-12-30T17:10:15.228Z,102081.06
2018-12-30T17:15:36.086Z,102089.20
2018-12-30T17:18:00.487Z,102093.61
2018-12-30T17:20:24.939Z,102095.34
2018-12-30T17:22:49.324Z,102097.55
2018-12-30T17:25:13.742Z,102094.48
2018-12-30T17:27:38.129Z,102102.39
2018-12-30T17:30:02.615Z,102107.02
2018-12-30T17:32:27.029Z,102105.52
2018-12-30T17:35:03.196Z,102110.23
2018-12-30T17:37:27.610Z,102103.90
2018-12-30T17:39:51.994Z,102102.30
2018-12-30T17:42:16.444Z,102108.82
2018-12-30T17:44:40.831Z,102109.03
2018-12-30T17:47:05.250Z,102103.69
2018-12-30T17:49:29.660Z,102107.08
2018-12-30T17:51:54.061Z,102106.56
2018-12-30T17:54:30.978Z,102108.16
2018-12-30T17:56:55.388Z,102119.59
2018-12-30T17:59:19.778Z,102124.23
2018-12-30T18:01:44.186Z,102126.97
2018-12-30T18:04:08.570Z,102131.74
2018-12-30T18:06:33.004Z,102137.92
2018-12-30T18:08:57.434Z,102133.14
2018-12-30T18:11:21.833Z,102140.50
2018-12-30T18:13:46.269Z,102142.07
2018-12-30T18:16:10.677Z,102116.82
2018-12-30T18:18:35.080Z,102143.83
2018-12-30T18:20:59.497Z,102141.23
2018-12-30T18:23:23.916Z,102142.00
2018-12-30T18:25:48.316Z,102148.77
2018-12-30T18:28:12.743Z,102142.16
2018-12-30T18:30:37.142Z,102141.34
2018-12-30T18:33:14.133Z,102131.35
2018-12-30T18:35:38.525Z,102132.67
2018-12-30T18:38:04.264Z,102132.95
2018-12-30T18:40:34.680Z,102137.45
2018-12-30T18:42:59.096Z,102137.69
2018-12-30T18:45:23.497Z,102135.23
2018-12-30T18:47:47.899Z,102143.73
2018-12-30T18:50:12.320Z,102144.12
2018-12-30T18:52:36.713Z,102142.81
2018-12-30T18:55:01.151Z,102143.73
2018-12-30T18:57:25.545Z,102144.45
2018-12-30T18:59:49.934Z,102148.44
2018-12-30T19:02:14.352Z,102149.91
2018-12-30T19:04:38.739Z,102146.82
2018-12-30T19:07:03.149Z,102146.25
2018-12-30T19:09:27.556Z,102137.33
2018-12-30T19:11:51.985Z,102132.67
2018-12-30T19:16:52.789Z,102126.57
2018-12-30T19:19:17.190Z,102125.34
2018-12-30T19:21:41.705Z,102129.01
2018-12-30T19:24:06.107Z,102135.35
2018-12-30T19:26:30.541Z,102140.38
2018-12-30T19:28:54.953Z,102140.47
2018-12-30T19:31:19.352Z,102140.55
2018-12-30T19:33:43.781Z,102141.78
2018-12-30T19:36:08.186Z,102143.55
2018-12-30T19:38:32.619Z,102130.33
2018-12-30T19:40:56.999Z,102131.13
2018-12-30T19:43:21.442Z,102144.38
2018-12-30T19:45:45.833Z,102138.99
2018-12-30T19:48:10.301Z,102147.77
2018-12-30T19:50:34.686Z,102155.50
2018-12-30T19:52:59.095Z,102155.85
2018-12-30T19:55:23.542Z,102148.59
2018-12-30T19:57:47.921Z,102145.03
2018-12-30T20:00:12.409Z,102130.80
2018-12-30T20:02:36.807Z,102140.46
2018-12-30T20:05:01.234Z,102134.42
2018-12-30T20:07:25.648Z,102136.03
2018-12-30T20:09:50.049Z,102141.17
2018-12-30T20:12:14.467Z,102144.64
2018-12-30T20:14:38.875Z,102143.31
2018-12-30T20:17:03.270Z,102148.56
2018-12-30T20:19:27.677Z,102140.16
2018-12-30T20:21:52.076Z,102145.73
2018-12-30T20:24:21.878Z,102143.88
2018-12-30T20:26:46.280Z,102079.69
2018-12-30T20:29:10.698Z,102139.31
2018-12-30T20:31:35.074Z,102132.48
2018-12-30T20:33:59.505Z,102139.08
2018-12-30T20:36:23.888Z,102137.84
2018-12-30T20:38:48.277Z,102141.11
2018-12-30T20:41:12.672Z,102148.56
2018-12-30T20:43:37.065Z,102144.09
2018-12-30T20:46:01.487Z,102152.68
2018-12-30T20:48:25.886Z,102157.47
2018-12-30T20:50:50.313Z,102154.84
2018-12-30T20:53:14.697Z,102157.45
2018-12-30T20:55:39.104Z,102156.22
2018-12-30T20:58:03.502Z,102144.61
2018-12-30T21:00:27.924Z,102152.84
2018-12-30T21:02:52.341Z,102142.38
2018-12-30T21:05:16.716Z,102148.09
2018-12-30T21:07:41.133Z,102145.23
2018-12-30T21:13:01.986Z,102136.13
2018-12-30T21:15:26.383Z,102137.30
2018-12-30T21:17:50.784Z,102129.65
2018-12-30T21:20:15.195Z,102135.75
2018-12-30T21:22:39.638Z,102142.91
2018-12-30T21:25:14.829Z,102150.04
2018-12-30T21:27:39.240Z,102145.53
2018-12-30T21:30:14.855Z,102148.34
2018-12-30T21:32:51.976Z,102160.14
2018-12-30T21:35:16.360Z,102167.41
2018-12-30T21:37:53.414Z,102164.95
2018-12-30T21:40:17.808Z,102170.37
2018-12-30T21:42:44.021Z,102168.22
2018-12-30T21:45:14.313Z,102172.66
2018-12-30T21:47:38.696Z,102172.23
2018-12-30T21:50:03.183Z,102167.13
2018-12-30T21:52:27.589Z,102163.53
2018-12-30T21:54:52.026Z,102155.05
2018-12-30T21:57:16.441Z,102152.02
2018-12-30T21:59:40.872Z,102154.60
2018-12-30T22:02:05.285Z,102162.50
2018-12-30T22:04:29.702Z,102152.68
2018-12-30T22:06:54.111Z,102159.34
2018-12-30T22:09:18.493Z,102162.36
2018-12-30T22:11:42.910Z,102163.27
2018-12-30T22:14:07.302Z,102161.84
2018-12-30T22:16:44.030Z,102161.82
2018-12-30T22:19:08.439Z,102166.78
2018-12-30T22:21:32.868Z,102172.78
2018-12-30T22:23:57.259Z,102181.07
2018-12-30T22:26:21.664Z,102183.41
2018-12-30T22:28:46.090Z,102180.95
2018-12-30T22:31:10.509Z,102185.50
2018-12-30T22:33:34.905Z,102188.38
2018-12-30T22:35:59.301Z,102183.50
2018-12-30T22:38:23.736Z,102181.90
2018-12-30T22:40:48.148Z,102181.34
2018-12-30T22:43:17.829Z,102186.56
2018-12-30T22:45:42.226Z,102188.59
2018-12-30T22:48:06.664Z,102183.61
2018-12-30T22:50:31.058Z,102179.88
2018-12-30T22:52:55.495Z,102183.55
2018-12-30T22:55:19.882Z,102178.73
2018-12-30T22:57:44.334Z,102178.72
2018-12-30T23:00:48.646Z,102172.69
2018-12-30T23:03:13.075Z,102172.09
2018-12-30T23:05:37.464Z,102176.44
2018-12-30T23:08:01.858Z,102168.99
2018-12-30T23:10:26.356Z,102179.50
2018-12-30T23:12:50.731Z,102175.09
2018-12-30T23:15:15.139Z,102168.51
2018-12-30T23:17:39.535Z,102164.61
2018-12-30T23:23:01.251Z,102148.91
2018-12-30T23:25:25.659Z,102156.34
2018-12-30T23:27:50.062Z,102162.41
2018-12-30T23:30:14.497Z,102173.66
2018-12-30T23:32:38.911Z,102179.27
2018-12-30T23:35:03.303Z,102172.41
2018-12-30T23:37:27.715Z,102173.31
2018-12-30T23:39:52.113Z,102174.88
2018-12-30T23:42:16.534Z,102167.77
2018-12-30T23:44:40.923Z,102137.41
2018-12-30T23:47:05.338Z,102166.52
2018-12-30T23:49:35.153Z,102165.97
2018-12-30T23:51:59.565Z,102159.48
2018-12-30T23:54:23.965Z,102159.39
2018-12-30T23:56:48.382Z,102161.89
2018-12-30T23:59:12.767Z,102162.73
